Aviation Digital Data Service (ADDS)

Output produced by METARs form (0300 UTC 05 June 2020)
found at http://www.aviationweather.gov/metar/data/
 
Forecast for: LEMG (MALAGA (CIV/MIL), ES)
Text: TAF LEMG 042300Z 0500/0524 30009KT 9999 FEW030 TX28/0512Z TN17/0506Z
Forecast period: 0000 UTC 05 June 2020 to 0000 UTC 06 June 2020
Forecast type: FROM: standard forecast or significant change
Winds: from the WNW (300 degrees) at 10 MPH (9 knots; 4.6 m/s)
Visibility: 6 or more miles 10+ km)
Ceiling: at least 12,000 feet AGL
Clouds: few clouds at 3000 feet AGL
Weather: no significant weather forecast for this period